Wardeh — ODUS — position and weather

sailwx.info

Track history (hours):
 
Tides and Currents Weather Stations Pressure Air Temp Water Temp Dewpoint Dewpoint Depression Visibility Wind Speed Wind Dir Waves Ship Positions

Wardeh

Last reported at 2014-Jul-24 18:33 UTC. Time now 2014-Jul-24 19:22 UTC.
Position N 33°59' E 034°27'.

; draft 6.4 m.

Type: Cargo ship. MMSI: 450522000.

Date/timePositionNaut miles runAvg speedWind from/ knotsBaromVisibWave heightAir tempDewpointWater temp
2014-Jul-24 18:33N 33°59' E 034°27'1612.9
2014-Jul-24 17:19N 33°57' E 034°46'2312.9
2014-Jul-24 15:32N 33°56' E 035°14'15 0.6
2014-Jul-23 14:28N 33°54' E 035°31'  
2014-Jul-19 14:12N 34°06' E 032°52'1214.7
2014-Jul-19 13:22N 34°07' E 032°37'  
2014-Jul-16 23:06N 36°34' E 014°55'814.5
2014-Jul-16 22:33N 36°36' E 014°45'1414.3
2014-Jul-16 21:33N 36°39' E 014°28'1413.8
2014-Jul-16 20:34N 36°43' E 014°12'1413.8
2014-Jul-16 19:34N 36°47' E 013°55'1414.2
2014-Jul-16 18:34N 36°50' E 013°38'1414.2
2014-Jul-16 17:34N 36°54' E 013°21'1414.5
2014-Jul-16 16:34N 36°58' E 013°03'49414.1
2014-Jul-15 05:33N 36°56' E 002°45'3614.9
2014-Jul-15 03:08N 36°48' E 002°01'915.1
2014-Jul-15 02:33N 36°45' E 001°51'3215.4
2014-Jul-15 00:28N 36°37' E 001°12'5914.0
2014-Jul-14 20:14N 36°31' W 000°02'  
Track history (hours):
 
Tides and Currents Weather Stations Pressure Air Temp Water Temp Dewpoint Dewpoint Depression Visibility Wind Speed Wind Dir Waves Ship Positions

Wardeh

Last reported at 2014-Jul-24 18:33 UTC. Time now 2014-Jul-24 19:22 UTC.
Position N 33°59' E 034°27'.

; draft 6.4 m.

Type: Cargo ship. MMSI: 450522000.

Date/timePositionNaut miles runAvg speedWind from/ knotsBaromVisibWave heightAir tempDewpointWater temp
2014-Jul-24 18:33N 33°59' E 034°27'1612.9
2014-Jul-24 17:19N 33°57' E 034°46'2312.9
2014-Jul-24 15:32N 33°56' E 035°14'15 0.6
2014-Jul-23 14:28N 33°54' E 035°31'  
2014-Jul-19 14:12N 34°06' E 032°52'1214.7
2014-Jul-19 13:22N 34°07' E 032°37'  
2014-Jul-16 23:06N 36°34' E 014°55'814.5
2014-Jul-16 22:33N 36°36' E 014°45'1414.3
2014-Jul-16 21:33N 36°39' E 014°28'1413.8
2014-Jul-16 20:34N 36°43' E 014°12'1413.8
2014-Jul-16 19:34N 36°47' E 013°55'1414.2
2014-Jul-16 18:34N 36°50' E 013°38'1414.2
2014-Jul-16 17:34N 36°54' E 013°21'1414.5
2014-Jul-16 16:34N 36°58' E 013°03'49414.1
2014-Jul-15 05:33N 36°56' E 002°45'3614.9
2014-Jul-15 03:08N 36°48' E 002°01'915.1
2014-Jul-15 02:33N 36°45' E 001°51'3215.4
2014-Jul-15 00:28N 36°37' E 001°12'5914.0
2014-Jul-14 20:14N 36°31' W 000°02'  

Dump ship's entire track history